Terminal Aerodrome Forecast
Issued by NWS Shreveport, LA

Home | Current Version | Previous Version | Text Only | Print | Product List | Glossary On
Versions: 1 2 3 4 5 6 7 8 9 10 11 12
897
FTUS44 KSHV 242340
TAFELD
TAF
KELD 242340Z 2500/2524 18004KT P6SM FEW045 BKN060 OVC100
     FM250300 16004KT P6SM SCT100 BKN250
      TEMPO 2511/2513 4SM BR OVC007
     FM251500 17009KT P6SM SCT025 BKN250=

USA.gov is the U.S. government's official web portal to all federal, state and local government web resources and services.